createdAt,value
2023-03-21T00:00:59.996Z,29.70
2023-03-21T00:03:29.162Z,29.60
2023-03-21T00:05:58.420Z,31.00
2023-03-21T00:08:27.517Z,31.00
2023-03-21T00:11:02.174Z,30.50
2023-03-21T00:13:38.726Z,30.10
2023-03-21T00:16:20.090Z,28.50
2023-03-21T00:18:52.851Z,30.00
2023-03-21T00:21:55.248Z,30.00
2023-03-21T00:24:23.124Z,29.70
2023-03-21T00:26:52.052Z,31.10
2023-03-21T00:29:21.225Z,29.80
2023-03-21T00:31:50.104Z,31.10
2023-03-21T00:34:26.725Z,32.20
2023-03-21T00:37:07.661Z,33.70
2023-03-21T00:39:36.884Z,33.80
2023-03-21T00:42:06.057Z,31.30
2023-03-21T00:44:37.162Z,30.80
2023-03-21T00:47:08.218Z,32.50
2023-03-21T00:49:38.830Z,32.40
2023-03-21T00:52:24.779Z,31.90
2023-03-21T00:54:59.896Z,33.10
2023-03-21T00:57:38.663Z,32.80
2023-03-21T01:00:11.187Z,33.30
2023-03-21T01:03:24.417Z,31.50
2023-03-21T01:06:07.688Z,32.80
2023-03-21T01:08:52.958Z,30.60
2023-03-21T01:11:26.137Z,31.00
2023-03-21T01:14:07.223Z,33.10
2023-03-21T01:16:45.395Z,30.90
2023-03-21T01:19:25.623Z,32.20
2023-03-21T01:21:58.159Z,31.20
2023-03-21T01:24:27.479Z,31.20
2023-03-21T01:26:56.849Z,32.80
2023-03-21T01:29:25.837Z,33.00
2023-03-21T01:31:56.039Z,32.80
2023-03-21T01:34:24.999Z,26.20
2023-03-21T01:36:54.200Z,25.90
2023-03-21T01:39:23.246Z,26.90
2023-03-21T01:41:52.656Z,27.80
2023-03-21T01:44:27.174Z,28.50
2023-03-21T01:47:09.750Z,29.40
2023-03-21T01:50:25.855Z,31.20
2023-03-21T01:53:05.121Z,30.50
2023-03-21T01:55:37.587Z,29.30
2023-03-21T01:58:26.865Z,30.30
2023-03-21T02:01:11.056Z,29.80
2023-03-21T02:03:52.483Z,30.10
2023-03-21T02:06:47.078Z,29.70
2023-03-21T02:09:35.662Z,30.30
2023-03-21T02:12:04.953Z,30.30
2023-03-21T02:14:36.421Z,31.00
2023-03-21T02:17:52.496Z,32.10
2023-03-21T02:20:51.397Z,32.60
2023-03-21T02:24:08.314Z,33.40
2023-03-21T02:27:19.145Z,31.30
2023-03-21T02:30:28.111Z,30.80
2023-03-21T02:33:26.808Z,32.80
2023-03-21T02:36:52.159Z,33.10
2023-03-21T02:39:41.114Z,31.10
2023-03-21T02:42:35.074Z,33.10
2023-03-21T02:45:27.138Z,31.80
2023-03-21T02:48:20.259Z,34.10
2023-03-21T02:50:59.511Z,33.20
2023-03-21T02:53:34.455Z,35.70
2023-03-21T02:56:10.945Z,38.10
2023-03-21T02:58:45.221Z,35.40
2023-03-21T03:01:14.151Z,37.10
2023-03-21T03:03:49.250Z,36.30
2023-03-21T03:06:56.497Z,38.20
2023-03-21T03:10:00.783Z,36.70
2023-03-21T03:12:57.442Z,38.40
2023-03-21T03:16:06.813Z,35.40
2023-03-21T03:18:56.833Z,36.30
2023-03-21T03:21:41.292Z,35.80
2023-03-21T03:24:21.032Z,36.10
2023-03-21T03:27:17.990Z,37.20
2023-03-21T03:29:49.924Z,37.60
2023-03-21T03:32:37.068Z,36.80
2023-03-21T03:35:07.486Z,35.30
2023-03-21T03:37:40.502Z,33.60
2023-03-21T03:40:41.517Z,34.70
2023-03-21T03:43:24.873Z,35.10
2023-03-21T03:46:00.692Z,34.30
2023-03-21T03:48:51.719Z,34.80
2023-03-21T03:51:43.547Z,37.30
2023-03-21T03:54:44.314Z,34.70
2023-03-21T03:57:14.082Z,36.60
2023-03-21T03:59:46.576Z,36.50
2023-03-21T04:02:25.864Z,37.00
2023-03-21T04:04:58.082Z,36.20
2023-03-21T04:07:28.119Z,32.90
2023-03-21T04:10:00.164Z,34.50
2023-03-21T04:12:29.365Z,33.60
2023-03-21T04:15:19.775Z,34.40
2023-03-21T04:17:53.058Z,34.80
2023-03-21T04:20:34.206Z,33.60
2023-03-21T04:23:07.861Z,34.80
2023-03-21T04:25:44.706Z,35.10
2023-03-21T04:28:22.421Z,32.40
2023-03-21T04:31:06.724Z,34.40
2023-03-21T04:33:45.600Z,33.60
2023-03-21T04:36:25.546Z,36.90
2023-03-21T04:38:57.526Z,33.40
2023-03-21T04:41:26.813Z,30.10
2023-03-21T04:43:56.733Z,32.40
2023-03-21T04:46:25.617Z,30.70
2023-03-21T04:48:54.615Z,30.80
2023-03-21T04:51:23.376Z,30.90
2023-03-21T04:53:52.799Z,31.40
2023-03-21T04:56:22.166Z,33.60
2023-03-21T04:58:51.614Z,31.60
2023-03-21T05:01:21.106Z,39.50
2023-03-21T05:03:50.329Z,32.60
2023-03-21T05:06:19.216Z,32.00
2023-03-21T05:08:47.993Z,33.00
2023-03-21T05:11:16.985Z,32.20
2023-03-21T05:13:46.697Z,33.20
2023-03-21T05:16:15.744Z,33.60
2023-03-21T05:18:45.949Z,32.10
2023-03-21T05:21:19.432Z,33.00
2023-03-21T05:23:54.534Z,31.70
2023-03-21T05:26:23.491Z,30.80
2023-03-21T05:29:07.174Z,31.10
2023-03-21T05:31:37.005Z,32.40
2023-03-21T05:34:08.858Z,33.90
2023-03-21T05:36:39.302Z,31.20
2023-03-21T05:39:09.557Z,33.20
2023-03-21T05:41:42.008Z,31.40
2023-03-21T05:44:11.361Z,32.20
2023-03-21T05:46:40.504Z,31.80
2023-03-21T05:49:11.655Z,32.50
2023-03-21T05:51:40.677Z,33.00
2023-03-21T05:54:09.439Z,34.10
2023-03-21T05:56:38.612Z,31.90
2023-03-21T05:59:10.151Z,31.00
2023-03-21T06:01:42.712Z,33.10
2023-03-21T06:04:14.366Z,34.40
2023-03-21T06:06:43.307Z,29.80
2023-03-21T06:09:12.852Z,33.50
2023-03-21T06:11:49.097Z,34.00
2023-03-21T06:14:25.397Z,32.70
2023-03-21T06:17:41.413Z,34.10
2023-03-21T06:20:12.460Z,33.00
2023-03-21T06:22:52.036Z,32.40
2023-03-21T06:25:21.691Z,32.10
2023-03-21T06:27:50.555Z,31.50
2023-03-21T06:30:20.834Z,31.60
2023-03-21T06:33:08.211Z,31.10
2023-03-21T06:35:37.409Z,34.40
2023-03-21T06:38:07.420Z,32.10
2023-03-21T06:40:39.674Z,31.60
2023-03-21T06:43:08.580Z,32.60
2023-03-21T06:45:37.722Z,31.80
2023-03-21T06:48:09.293Z,32.20
2023-03-21T06:50:50.592Z,33.30
2023-03-21T06:53:25.136Z,30.90
2023-03-21T06:56:14.187Z,31.80
2023-03-21T06:58:43.612Z,34.20
2023-03-21T07:01:19.203Z,32.40
2023-03-21T07:03:59.336Z,32.40
2023-03-21T07:06:28.800Z,31.90
2023-03-21T07:08:58.275Z,32.20
2023-03-21T07:17:45.171Z,30.20
2023-03-21T07:20:14.393Z,28.70
2023-03-21T07:22:43.530Z,30.70
2023-03-21T07:25:12.474Z,29.50
2023-03-21T07:27:42.439Z,30.00
2023-03-21T07:30:13.456Z,29.10
2023-03-21T07:32:43.041Z,31.00
2023-03-21T07:35:15.273Z,28.80
2023-03-21T07:37:44.633Z,30.00
2023-03-21T07:40:17.137Z,28.90
2023-03-21T07:42:46.206Z,28.30
2023-03-21T07:45:22.193Z,26.20
2023-03-21T07:47:51.985Z,24.90
2023-03-21T07:50:21.674Z,22.90
2023-03-21T07:52:50.500Z,21.30
2023-03-21T07:55:19.403Z,22.50
2023-03-21T07:57:52.254Z,16.40
2023-03-21T08:00:23.351Z,20.90
2023-03-21T08:02:58.025Z,20.20
2023-03-21T08:05:33.633Z,20.50
2023-03-21T08:08:03.453Z,19.90
2023-03-21T08:10:32.205Z,21.20
2023-03-21T08:13:01.062Z,20.40
2023-03-21T08:15:30.100Z,18.40
2023-03-21T08:18:00.624Z,21.20
2023-03-21T08:20:29.510Z,21.70
2023-03-21T08:22:58.300Z,20.30
2023-03-21T08:25:27.212Z,22.00
2023-03-21T08:27:56.222Z,22.20
2023-03-21T08:30:27.333Z,22.10
2023-03-21T08:33:02.155Z,22.50
2023-03-21T08:35:31.874Z,22.20
2023-03-21T08:38:04.219Z,21.90
2023-03-21T08:40:34.042Z,22.20
2023-03-21T08:43:03.834Z,24.30
2023-03-21T08:45:32.707Z,23.80
2023-03-21T08:48:01.462Z,22.10
2023-03-21T08:50:32.007Z,25.50
2023-03-21T08:53:00.810Z,23.90
2023-03-21T08:55:30.652Z,22.70
2023-03-21T08:58:00.319Z,25.40
2023-03-21T09:00:29.229Z,25.90
2023-03-21T09:02:59.064Z,23.60
2023-03-21T09:05:28.616Z,23.90
2023-03-21T09:07:57.975Z,23.30
2023-03-21T09:10:26.795Z,24.70
2023-03-21T09:12:56.802Z,23.10
2023-03-21T09:15:29.141Z,22.30
2023-03-21T09:18:13.254Z,22.20
2023-03-21T09:20:44.915Z,24.10
2023-03-21T09:23:14.970Z,23.50
2023-03-21T09:25:46.215Z,21.90
2023-03-21T09:28:14.880Z,22.90
2023-03-21T09:30:43.756Z,24.90
2023-03-21T09:33:13.437Z,28.20
2023-03-21T09:35:42.963Z,25.00
2023-03-21T09:38:11.885Z,26.70
2023-03-21T09:41:10.160Z,26.80
2023-03-21T09:44:08.272Z,26.90
2023-03-21T09:46:51.148Z,28.20
2023-03-21T09:49:33.038Z,29.20
2023-03-21T09:52:14.039Z,29.80
2023-03-21T09:54:45.938Z,24.20
2023-03-21T09:57:40.232Z,29.50
2023-03-21T10:00:21.080Z,26.40
2023-03-21T10:02:55.074Z,27.60
2023-03-21T10:05:32.894Z,26.50
2023-03-21T10:08:25.045Z,28.50
2023-03-21T10:11:21.832Z,31.30
2023-03-21T10:14:17.489Z,26.70
2023-03-21T10:16:57.046Z,30.10
2023-03-21T10:19:28.251Z,27.80
2023-03-21T10:22:01.287Z,22.90
2023-03-21T10:24:34.922Z,29.60
2023-03-21T10:27:05.587Z,26.70
2023-03-21T10:29:44.086Z,24.70
2023-03-21T10:32:17.755Z,24.80
2023-03-21T10:37:26.068Z,23.30
2023-03-21T10:39:56.081Z,22.50
2023-03-21T10:42:29.820Z,26.80
2023-03-21T10:44:59.019Z,25.70
2023-03-21T10:47:34.174Z,24.60
2023-03-21T10:50:20.721Z,26.50
2023-03-21T10:52:53.369Z,26.60
2023-03-21T10:55:34.480Z,24.30
2023-03-21T10:58:08.754Z,25.90
2023-03-21T11:00:43.506Z,25.80
2023-03-21T11:03:36.620Z,24.30
2023-03-21T11:09:15.416Z,21.10
2023-03-21T11:11:54.964Z,24.60
2023-03-21T11:14:36.384Z,24.10
2023-03-21T11:17:19.371Z,24.40
2023-03-21T11:22:27.367Z,24.40
2023-03-21T11:25:06.399Z,23.00
2023-03-21T11:27:36.176Z,23.30
2023-03-21T11:30:18.474Z,23.50
2023-03-21T11:32:54.469Z,19.40
2023-03-21T11:35:39.532Z,19.80
2023-03-21T11:38:27.574Z,19.70
2023-03-21T11:41:02.813Z,21.00
2023-03-21T11:43:37.001Z,20.70
2023-03-21T11:46:14.387Z,19.50
2023-03-21T11:48:47.135Z,22.10
2023-03-21T11:51:21.539Z,22.40
2023-03-21T11:54:04.555Z,20.50
2023-03-21T11:56:45.665Z,19.00
2023-03-21T11:59:45.353Z,24.20
2023-03-21T12:02:42.103Z,24.10
2023-03-21T12:05:21.794Z,22.30
2023-03-21T12:08:27.228Z,23.50
2023-03-21T12:11:29.590Z,23.60
2023-03-21T12:14:13.746Z,23.30
2023-03-21T12:17:01.115Z,21.80
2023-03-21T12:20:15.497Z,19.90
2023-03-21T12:23:06.885Z,22.50
2023-03-21T12:25:59.448Z,20.90
2023-03-21T12:29:30.255Z,20.20
2023-03-21T12:32:18.887Z,18.10
2023-03-21T12:35:14.043Z,17.50
2023-03-21T12:38:06.984Z,15.90
2023-03-21T12:43:59.326Z,14.90
2023-03-21T12:46:56.280Z,15.50
2023-03-21T12:49:43.346Z,15.80
2023-03-21T12:52:32.172Z,15.40
2023-03-21T12:55:33.845Z,15.50
2023-03-21T12:58:13.952Z,15.30
2023-03-21T13:01:03.416Z,15.70
2023-03-21T13:03:45.680Z,15.10
2023-03-21T13:06:18.523Z,14.70
2023-03-21T13:08:55.564Z,14.60
2023-03-21T13:11:29.812Z,16.30
2023-03-21T13:14:26.978Z,15.00
2023-03-21T13:17:37.337Z,13.70
2023-03-21T13:20:22.974Z,14.70
2023-03-21T13:22:51.700Z,15.40
2023-03-21T13:25:23.486Z,14.90
2023-03-21T13:28:02.755Z,15.90
2023-03-21T13:30:32.696Z,14.70
2023-03-21T13:33:13.417Z,13.80
2023-03-21T13:35:45.285Z,12.20
2023-03-21T13:38:26.694Z,14.00
2023-03-21T13:41:20.445Z,13.00
2023-03-21T13:44:08.618Z,13.60
2023-03-21T13:46:54.219Z,12.10
2023-03-21T13:49:38.728Z,12.90
2023-03-21T13:52:10.488Z,12.80
2023-03-21T13:54:39.424Z,13.90
2023-03-21T13:57:27.236Z,13.00
2023-03-21T14:00:17.787Z,15.30
2023-03-21T14:03:09.091Z,14.80
2023-03-21T14:05:39.609Z,14.50
2023-03-21T14:08:24.806Z,12.60
2023-03-21T14:11:00.735Z,15.10
2023-03-21T14:13:33.043Z,13.50
2023-03-21T14:16:13.016Z,12.60
2023-03-21T14:18:54.568Z,12.10
2023-03-21T14:21:31.373Z,10.40
2023-03-21T14:24:06.410Z,12.20
2023-03-21T14:26:45.857Z,11.00
2023-03-21T14:29:35.779Z,10.90
2023-03-21T14:32:05.901Z,10.90
2023-03-21T14:34:36.250Z,10.50
2023-03-21T14:37:11.340Z,10.50
2023-03-21T14:39:40.121Z,9.40
2023-03-21T14:42:15.246Z,9.60
2023-03-21T14:44:57.302Z,10.40
2023-03-21T14:47:29.578Z,9.90
2023-03-21T14:52:35.162Z,9.40
2023-03-21T14:55:16.624Z,9.20
2023-03-21T14:57:45.600Z,9.60
2023-03-21T15:00:33.428Z,9.90
2023-03-21T15:03:03.329Z,9.80
2023-03-21T15:05:38.291Z,10.00
2023-03-21T15:08:23.352Z,9.20
2023-03-21T15:11:09.400Z,11.60
2023-03-21T15:13:50.221Z,11.70
2023-03-21T15:16:20.241Z,10.40
2023-03-21T15:18:50.356Z,10.10
2023-03-21T15:21:31.159Z,9.90
2023-03-21T15:24:13.617Z,9.20
2023-03-21T15:26:48.571Z,10.80
2023-03-21T15:29:18.751Z,10.50
2023-03-21T15:31:48.617Z,9.80
2023-03-21T15:34:27.785Z,9.70
2023-03-21T15:37:09.298Z,10.90
2023-03-21T15:39:38.166Z,12.30
2023-03-21T15:42:34.350Z,11.10
2023-03-21T15:45:15.740Z,30.20
2023-03-21T15:47:51.860Z,24.50
2023-03-21T15:50:43.654Z,15.80
2023-03-21T15:53:17.897Z,14.00
2023-03-21T15:56:02.849Z,14.40
2023-03-21T15:58:39.462Z,14.90
2023-03-21T16:01:26.622Z,16.50
2023-03-21T16:04:07.213Z,18.10
2023-03-21T16:06:39.737Z,15.20
2023-03-21T16:09:22.380Z,14.00
2023-03-21T16:11:57.004Z,13.10
2023-03-21T16:14:30.272Z,13.70
2023-03-21T16:16:59.267Z,13.50
2023-03-21T16:19:29.911Z,13.10
2023-03-21T16:21:58.967Z,13.70
2023-03-21T16:24:27.741Z,14.50
2023-03-21T16:26:56.838Z,16.00
2023-03-21T16:29:25.716Z,19.90
2023-03-21T16:31:54.603Z,15.20
2023-03-21T16:34:23.531Z,13.50
2023-03-21T16:36:52.302Z,14.60
2023-03-21T16:39:25.501Z,16.40
2023-03-21T16:41:54.882Z,18.30
2023-03-21T16:44:23.682Z,19.00
2023-03-21T16:46:52.382Z,18.40
2023-03-21T16:49:25.078Z,18.20
2023-03-21T16:51:56.196Z,17.20
2023-03-21T16:54:25.898Z,19.30
2023-03-21T16:56:56.378Z,17.50
2023-03-21T16:59:25.455Z,17.50
2023-03-21T17:01:54.242Z,17.90
2023-03-21T17:04:24.472Z,20.00
2023-03-21T17:06:55.067Z,19.50
2023-03-21T17:09:29.384Z,20.50
2023-03-21T17:11:58.464Z,17.00
2023-03-21T17:14:27.284Z,17.40
2023-03-21T17:16:56.533Z,17.10
2023-03-21T17:19:28.249Z,18.90
2023-03-21T17:21:57.334Z,24.40
2023-03-21T17:24:26.498Z,23.50
2023-03-21T17:26:55.703Z,24.10
2023-03-21T17:29:24.406Z,22.80
2023-03-21T17:31:53.342Z,24.20
2023-03-21T17:34:22.436Z,26.80
2023-03-21T17:36:51.223Z,29.60
2023-03-21T17:39:24.388Z,41.10
2023-03-21T17:41:54.038Z,32.60
2023-03-21T17:44:22.907Z,26.30
2023-03-21T17:46:52.626Z,27.00
2023-03-21T17:49:21.469Z,27.40
2023-03-21T17:51:50.619Z,31.70
2023-03-21T17:54:19.382Z,27.60
2023-03-21T17:56:48.690Z,22.20
2023-03-21T17:59:17.906Z,27.40
2023-03-21T18:01:47.605Z,25.70
2023-03-21T18:04:16.526Z,30.30
2023-03-21T18:06:45.269Z,21.60
2023-03-21T18:09:14.145Z,23.60
2023-03-21T18:11:42.973Z,20.90
2023-03-21T18:14:18.023Z,18.30
2023-03-21T18:16:50.743Z,16.00
2023-03-21T18:19:19.501Z,16.00
2023-03-21T18:21:48.234Z,15.60
2023-03-21T18:24:17.033Z,15.70
2023-03-21T18:26:46.202Z,16.80
2023-03-21T18:30:17.435Z,17.30
2023-03-21T18:32:08.860Z,17.70
2023-03-21T18:34:39.696Z,17.40
2023-03-21T18:37:11.275Z,16.80
2023-03-21T18:42:18.770Z,16.70
2023-03-21T18:44:48.617Z,16.50
2023-03-21T18:47:17.486Z,16.90
2023-03-21T18:52:35.835Z,15.90
2023-03-21T18:55:09.003Z,16.30
2023-03-21T18:57:38.860Z,18.00
2023-03-21T19:00:17.361Z,16.70
2023-03-21T19:03:06.313Z,17.40
2023-03-21T19:05:42.296Z,18.10
2023-03-21T19:08:11.054Z,17.90
2023-03-21T19:10:40.948Z,16.30
2023-03-21T19:13:10.010Z,15.00
2023-03-21T19:15:39.285Z,15.00
2023-03-21T19:18:41.424Z,15.20
2023-03-21T19:20:58.820Z,14.50
2023-03-21T19:23:39.870Z,13.00
2023-03-21T19:26:16.489Z,14.30
2023-03-21T19:28:46.180Z,13.70
2023-03-21T19:31:14.993Z,13.20
2023-03-21T19:33:44.106Z,13.30
2023-03-21T19:36:21.208Z,12.70
2023-03-21T19:38:51.816Z,13.40
2023-03-21T19:41:21.033Z,12.70
2023-03-21T19:43:55.212Z,12.70
2023-03-21T19:46:26.628Z,12.40
2023-03-21T19:48:56.973Z,11.80
2023-03-21T19:51:29.910Z,11.80
2023-03-21T19:54:00.189Z,12.60
2023-03-21T19:56:31.392Z,10.80
2023-03-21T19:59:02.941Z,11.50
2023-03-21T20:01:34.590Z,12.70
2023-03-21T20:04:03.756Z,12.90
2023-03-21T20:06:32.518Z,11.10
2023-03-21T20:11:50.402Z,13.50
2023-03-21T20:14:20.611Z,13.40
2023-03-21T20:16:49.422Z,14.10
2023-03-21T20:19:20.268Z,14.10
2023-03-21T20:21:56.889Z,14.50
2023-03-21T20:24:28.435Z,14.40
2023-03-21T20:26:57.769Z,11.20
2023-03-21T20:32:16.070Z,13.40
2023-03-21T20:34:46.143Z,13.60
2023-03-21T20:37:15.362Z,14.00
2023-03-21T20:39:44.319Z,11.30
2023-03-21T20:42:14.352Z,11.80
2023-03-21T20:44:57.763Z,12.90
2023-03-21T20:47:26.932Z,13.40
2023-03-21T20:49:58.610Z,13.20
2023-03-21T20:55:18.192Z,15.20
2023-03-21T20:58:30.005Z,16.50
2023-03-21T21:01:17.259Z,15.30
2023-03-21T21:03:46.487Z,15.50
2023-03-21T21:06:17.724Z,15.90
2023-03-21T21:08:46.768Z,15.80
2023-03-21T21:12:03.060Z,16.90
2023-03-21T21:14:07.367Z,13.70
2023-03-21T21:16:37.342Z,16.10
2023-03-21T21:19:06.049Z,16.40
2023-03-21T21:21:35.037Z,15.60
2023-03-21T21:24:07.429Z,16.40
2023-03-21T21:26:36.588Z,15.80
2023-03-21T21:29:07.038Z,15.30
2023-03-21T21:31:35.816Z,14.90
2023-03-21T21:34:05.960Z,13.80
2023-03-21T21:36:34.662Z,14.00
2023-03-21T21:39:04.343Z,14.50
2023-03-21T21:41:33.339Z,14.50
2023-03-21T21:44:02.153Z,15.20
2023-03-21T21:46:31.873Z,14.10
2023-03-21T21:49:02.192Z,16.90
2023-03-21T21:51:34.149Z,16.20
2023-03-21T21:54:04.542Z,17.10
2023-03-21T21:56:38.630Z,17.20
2023-03-21T21:59:07.424Z,18.50
2023-03-21T22:01:38.753Z,17.70
2023-03-21T22:04:10.875Z,18.80
2023-03-21T22:06:39.638Z,17.90
2023-03-21T22:09:08.324Z,16.40
2023-03-21T22:11:37.356Z,17.70
2023-03-21T22:14:06.423Z,17.30
2023-03-21T22:16:35.146Z,15.80
2023-03-21T22:19:04.488Z,16.90
2023-03-21T22:21:33.254Z,18.00
2023-03-21T22:24:02.055Z,18.60
2023-03-21T22:26:30.872Z,19.50
2023-03-21T22:29:00.153Z,18.90
2023-03-21T22:31:28.939Z,17.40
2023-03-21T22:33:57.717Z,16.20
2023-03-21T22:36:26.429Z,16.70
2023-03-21T22:38:55.188Z,16.60
2023-03-21T22:41:23.902Z,15.90
2023-03-21T22:43:52.593Z,16.50
2023-03-21T22:46:21.383Z,16.50
2023-03-21T22:48:50.098Z,17.70
2023-03-21T22:51:18.821Z,16.10
2023-03-21T22:53:47.589Z,16.20
2023-03-21T22:56:16.275Z,17.00
2023-03-21T22:58:45.055Z,17.50
2023-03-21T23:01:13.778Z,17.10
2023-03-21T23:03:42.586Z,17.40
2023-03-21T23:06:11.430Z,17.30
2023-03-21T23:08:40.234Z,17.00
2023-03-21T23:11:09.947Z,15.40
2023-03-21T23:13:41.417Z,17.50
2023-03-21T23:16:10.214Z,16.20
2023-03-21T23:18:38.960Z,13.30
2023-03-21T23:21:13.408Z,16.20
2023-03-21T23:23:44.053Z,16.00
2023-03-21T23:26:13.223Z,16.00
2023-03-21T23:28:41.981Z,14.90
2023-03-21T23:31:14.462Z,17.20
2023-03-21T23:33:44.607Z,16.80
2023-03-21T23:36:15.736Z,16.40
2023-03-21T23:38:45.951Z,16.50
2023-03-21T23:41:19.167Z,15.70
2023-03-21T23:43:49.034Z,16.90
2023-03-21T23:46:18.873Z,15.80
2023-03-21T23:48:47.804Z,17.30
2023-03-21T23:51:18.075Z,16.90
2023-03-21T23:53:47.707Z,16.50
2023-03-21T23:56:22.687Z,17.90
2023-03-21T23:58:51.968Z,15.90
